sensor_id;sensor_type;location;lat;lon;timestamp;temperature;humidity
25718;DHT22;13574;52.040;5.692;2022-09-20T00:01:27;17.20;99.90
25718;DHT22;13574;52.040;5.692;2022-09-20T00:03:57;17.20;99.90
25718;DHT22;13574;52.040;5.692;2022-09-20T00:06:26;17.20;99.90
25718;DHT22;13574;52.040;5.692;2022-09-20T00:08:53;17.20;99.90
25718;DHT22;13574;52.040;5.692;2022-09-20T00:11:24;17.10;99.90
25718;DHT22;13574;52.040;5.692;2022-09-20T00:13:54;17.20;99.90
25718;DHT22;13574;52.040;5.692;2022-09-20T00:16:27;17.20;99.90
25718;DHT22;13574;52.040;5.692;2022-09-20T00:18:54;17.20;99.90
25718;DHT22;13574;52.040;5.692;2022-09-20T00:21:25;17.20;99.90
25718;DHT22;13574;52.040;5.692;2022-09-20T00:23:52;17.10;99.90
25718;DHT22;13574;52.040;5.692;2022-09-20T00:26:18;17.10;99.90
25718;DHT22;13574;52.040;5.692;2022-09-20T00:28:44;17.20;99.90
25718;DHT22;13574;52.040;5.692;2022-09-20T00:31:12;17.10;99.90
25718;DHT22;13574;52.040;5.692;2022-09-20T00:33:37;17.10;99.90
25718;DHT22;13574;52.040;5.692;2022-09-20T00:36:22;17.10;99.90
25718;DHT22;13574;52.040;5.692;2022-09-20T00:38:48;17.20;99.90
25718;DHT22;13574;52.040;5.692;2022-09-20T00:41:14;17.10;99.90
25718;DHT22;13574;52.040;5.692;2022-09-20T00:43:44;17.10;99.90
25718;DHT22;13574;52.040;5.692;2022-09-20T00:46:32;17.10;99.90
25718;DHT22;13574;52.040;5.692;2022-09-20T00:49:16;17.10;99.90
25718;DHT22;13574;52.040;5.692;2022-09-20T00:51:47;17.20;99.90
25718;DHT22;13574;52.040;5.692;2022-09-20T00:54:15;17.20;99.90
25718;DHT22;13574;52.040;5.692;2022-09-20T00:56:43;17.20;99.90
25718;DHT22;13574;52.040;5.692;2022-09-20T00:59:21;17.20;99.90
25718;DHT22;13574;52.040;5.692;2022-09-20T01:02:14;17.30;99.90
25718;DHT22;13574;52.040;5.692;2022-09-20T01:04:42;17.40;99.90
25718;DHT22;13574;52.040;5.692;2022-09-20T01:07:13;17.40;99.90
25718;DHT22;13574;52.040;5.692;2022-09-20T01:09:40;17.40;99.90
25718;DHT22;13574;52.040;5.692;2022-09-20T01:12:10;17.40;99.90
25718;DHT22;13574;52.040;5.692;2022-09-20T01:14:38;17.40;99.90
25718;DHT22;13574;52.040;5.692;2022-09-20T01:17:06;17.40;99.90
25718;DHT22;13574;52.040;5.692;2022-09-20T01:19:51;17.40;99.90
25718;DHT22;13574;52.040;5.692;2022-09-20T01:28:14;17.40;99.90
25718;DHT22;13574;52.040;5.692;2022-09-20T01:30:56;17.30;99.90
25718;DHT22;13574;52.040;5.692;2022-09-20T01:33:29;17.30;99.90
25718;DHT22;13574;52.040;5.692;2022-09-20T01:36:00;17.30;99.90
25718;DHT22;13574;52.040;5.692;2022-09-20T01:38:55;17.30;99.90
25718;DHT22;13574;52.040;5.692;2022-09-20T01:41:35;17.30;99.90
25718;DHT22;13574;52.040;5.692;2022-09-20T01:44:12;17.30;99.90
25718;DHT22;13574;52.040;5.692;2022-09-20T01:46:41;17.30;99.90
25718;DHT22;13574;52.040;5.692;2022-09-20T01:49:32;17.30;99.90
25718;DHT22;13574;52.040;5.692;2022-09-20T02:00:24;17.20;99.90
25718;DHT22;13574;52.040;5.692;2022-09-20T02:03:07;17.20;99.90
25718;DHT22;13574;52.040;5.692;2022-09-20T02:11:13;17.20;99.90
25718;DHT22;13574;52.040;5.692;2022-09-20T02:30:19;17.20;99.90
25718;DHT22;13574;52.040;5.692;2022-09-20T02:33:03;17.10;99.90
25718;DHT22;13574;52.040;5.692;2022-09-20T02:35:49;17.10;99.90
25718;DHT22;13574;52.040;5.692;2022-09-20T02:38:40;17.10;99.90
25718;DHT22;13574;52.040;5.692;2022-09-20T02:41:12;17.10;99.90
25718;DHT22;13574;52.040;5.692;2022-09-20T02:46:57;17.20;99.90
25718;DHT22;13574;52.040;5.692;2022-09-20T02:55:18;17.20;99.90
25718;DHT22;13574;52.040;5.692;2022-09-20T02:58:08;17.20;99.90
25718;DHT22;13574;52.040;5.692;2022-09-20T03:04:01;17.20;99.90
25718;DHT22;13574;52.040;5.692;2022-09-20T03:06:49;17.20;99.90
25718;DHT22;13574;52.040;5.692;2022-09-20T03:15:39;17.20;99.90
25718;DHT22;13574;52.040;5.692;2022-09-20T03:18:10;17.20;99.90
25718;DHT22;13574;52.040;5.692;2022-09-20T03:35:03;17.10;99.90
25718;DHT22;13574;52.040;5.692;2022-09-20T03:40:28;17.10;99.90
25718;DHT22;13574;52.040;5.692;2022-09-20T03:46:40;17.10;99.90
25718;DHT22;13574;52.040;5.692;2022-09-20T03:52:01;17.00;99.90
25718;DHT22;13574;52.040;5.692;2022-09-20T03:57:25;17.00;99.90
25718;DHT22;13574;52.040;5.692;2022-09-20T04:05:06;16.90;99.90
25718;DHT22;13574;52.040;5.692;2022-09-20T04:11:11;16.90;99.90
25718;DHT22;13574;52.040;5.692;2022-09-20T04:14:02;16.80;99.90
25718;DHT22;13574;52.040;5.692;2022-09-20T04:16:43;16.80;99.90
25718;DHT22;13574;52.040;5.692;2022-09-20T04:19:47;16.80;99.90
25718;DHT22;13574;52.040;5.692;2022-09-20T04:22:17;16.70;99.90
25718;DHT22;13574;52.040;5.692;2022-09-20T04:24:55;16.80;99.90
25718;DHT22;13574;52.040;5.692;2022-09-20T04:35:39;16.70;99.90
25718;DHT22;13574;52.040;5.692;2022-09-20T04:38:26;16.70;99.90
25718;DHT22;13574;52.040;5.692;2022-09-20T04:49:00;16.60;99.90
25718;DHT22;13574;52.040;5.692;2022-09-20T04:51:44;16.60;99.90
25718;DHT22;13574;52.040;5.692;2022-09-20T05:00:19;16.70;99.90
25718;DHT22;13574;52.040;5.692;2022-09-20T05:05:59;16.70;99.90
25718;DHT22;13574;52.040;5.692;2022-09-20T05:08:32;16.70;99.90
25718;DHT22;13574;52.040;5.692;2022-09-20T05:11:24;16.70;99.90
25718;DHT22;13574;52.040;5.692;2022-09-20T05:22:20;16.70;99.90
25718;DHT22;13574;52.040;5.692;2022-09-20T05:27:53;16.70;99.90
25718;DHT22;13574;52.040;5.692;2022-09-20T05:36:07;16.60;99.90
25718;DHT22;13574;52.040;5.692;2022-09-20T05:38:44;16.60;99.90
25718;DHT22;13574;52.040;5.692;2022-09-20T05:44:36;16.60;99.90
25718;DHT22;13574;52.040;5.692;2022-09-20T05:50:16;16.60;99.90
25718;DHT22;13574;52.040;5.692;2022-09-20T05:52:45;16.60;99.90
25718;DHT22;13574;52.040;5.692;2022-09-20T06:00:50;16.60;99.90
25718;DHT22;13574;52.040;5.692;2022-09-20T06:03:51;16.60;99.90
25718;DHT22;13574;52.040;5.692;2022-09-20T06:06:17;16.70;99.90
25718;DHT22;13574;52.040;5.692;2022-09-20T06:16:57;16.90;99.90
25718;DHT22;13574;52.040;5.692;2022-09-20T06:27:41;17.30;99.90
25718;DHT22;13574;52.040;5.692;2022-09-20T06:30:14;17.40;99.90
25718;DHT22;13574;52.040;5.692;2022-09-20T06:33:00;17.40;99.90
25718;DHT22;13574;52.040;5.692;2022-09-20T06:41:58;17.70;99.90
25718;DHT22;13574;52.040;5.692;2022-09-20T06:44:24;17.80;99.90
25718;DHT22;13574;52.040;5.692;2022-09-20T06:46:50;17.80;99.90
25718;DHT22;13574;52.040;5.692;2022-09-20T06:49:19;17.90;99.90
25718;DHT22;13574;52.040;5.692;2022-09-20T06:51:45;17.80;99.90
25718;DHT22;13574;52.040;5.692;2022-09-20T06:54:19;17.80;99.90
25718;DHT22;13574;52.040;5.692;2022-09-20T06:56:46;17.80;99.90
25718;DHT22;13574;52.040;5.692;2022-09-20T06:59:13;17.80;99.90
25718;DHT22;13574;52.040;5.692;2022-09-20T07:01:40;17.80;99.90
25718;DHT22;13574;52.040;5.692;2022-09-20T07:04:06;17.80;99.90
25718;DHT22;13574;52.040;5.692;2022-09-20T07:06:32;17.80;99.90
25718;DHT22;13574;52.040;5.692;2022-09-20T07:08:58;17.90;99.90
25718;DHT22;13574;52.040;5.692;2022-09-20T07:11:24;18.00;99.90
25718;DHT22;13574;52.040;5.692;2022-09-20T07:13:51;18.10;99.90
25718;DHT22;13574;52.040;5.692;2022-09-20T07:16:18;18.20;99.90
25718;DHT22;13574;52.040;5.692;2022-09-20T07:18:45;18.30;99.90
25718;DHT22;13574;52.040;5.692;2022-09-20T07:21:12;18.40;99.90
25718;DHT22;13574;52.040;5.692;2022-09-20T07:23:38;18.50;99.90
25718;DHT22;13574;52.040;5.692;2022-09-20T07:26:05;18.50;99.90
25718;DHT22;13574;52.040;5.692;2022-09-20T07:28:32;18.60;99.90
25718;DHT22;13574;52.040;5.692;2022-09-20T07:30:58;18.80;99.90
25718;DHT22;13574;52.040;5.692;2022-09-20T07:33:25;18.90;99.90
25718;DHT22;13574;52.040;5.692;2022-09-20T07:35:52;19.10;99.90
25718;DHT22;13574;52.040;5.692;2022-09-20T07:38:20;19.00;99.90
25718;DHT22;13574;52.040;5.692;2022-09-20T07:40:53;19.00;99.90
25718;DHT22;13574;52.040;5.692;2022-09-20T07:43:19;19.00;99.90
25718;DHT22;13574;52.040;5.692;2022-09-20T07:45:49;19.00;99.90
25718;DHT22;13574;52.040;5.692;2022-09-20T07:48:25;19.10;99.90
25718;DHT22;13574;52.040;5.692;2022-09-20T07:51:09;19.10;99.90
25718;DHT22;13574;52.040;5.692;2022-09-20T07:53:35;19.20;99.90
25718;DHT22;13574;52.040;5.692;2022-09-20T07:56:02;19.30;99.90
25718;DHT22;13574;52.040;5.692;2022-09-20T07:58:30;19.50;99.90
25718;DHT22;13574;52.040;5.692;2022-09-20T08:00:58;19.90;99.90
25718;DHT22;13574;52.040;5.692;2022-09-20T08:03:24;20.10;99.90
25718;DHT22;13574;52.040;5.692;2022-09-20T08:05:51;20.40;99.50
25718;DHT22;13574;52.040;5.692;2022-09-20T08:08:23;20.60;98.90
25718;DHT22;13574;52.040;5.692;2022-09-20T08:10:49;20.90;98.80
25718;DHT22;13574;52.040;5.692;2022-09-20T08:13:15;21.30;98.40
25718;DHT22;13574;52.040;5.692;2022-09-20T08:15:41;21.40;97.80
25718;DHT22;13574;52.040;5.692;2022-09-20T08:18:08;21.70;97.40
25718;DHT22;13574;52.040;5.692;2022-09-20T08:20:37;21.80;97.10
25718;DHT22;13574;52.040;5.692;2022-09-20T08:23:06;21.90;97.00
25718;DHT22;13574;52.040;5.692;2022-09-20T08:25:33;21.90;96.80
25718;DHT22;13574;52.040;5.692;2022-09-20T08:27:59;21.60;96.70
25718;DHT22;13574;52.040;5.692;2022-09-20T08:30:25;21.10;96.10
25718;DHT22;13574;52.040;5.692;2022-09-20T08:32:51;21.00;96.00
25718;DHT22;13574;52.040;5.692;2022-09-20T08:35:20;20.70;96.80
25718;DHT22;13574;52.040;5.692;2022-09-20T08:37:46;20.50;97.30
25718;DHT22;13574;52.040;5.692;2022-09-20T08:40:13;20.50;97.40
25718;DHT22;13574;52.040;5.692;2022-09-20T08:42:41;20.50;97.90
25718;DHT22;13574;52.040;5.692;2022-09-20T08:45:18;20.40;98.20
25718;DHT22;13574;52.040;5.692;2022-09-20T08:48:05;20.40;98.20
25718;DHT22;13574;52.040;5.692;2022-09-20T08:50:35;20.20;98.20
25718;DHT22;13574;52.040;5.692;2022-09-20T08:53:01;19.90;98.40
25718;DHT22;13574;52.040;5.692;2022-09-20T08:55:29;19.60;98.60
25718;DHT22;13574;52.040;5.692;2022-09-20T08:58:00;19.60;99.00
25718;DHT22;13574;52.040;5.692;2022-09-20T09:00:32;19.50;99.30
25718;DHT22;13574;52.040;5.692;2022-09-20T09:03:03;19.50;99.80
25718;DHT22;13574;52.040;5.692;2022-09-20T09:05:32;19.40;99.90
25718;DHT22;13574;52.040;5.692;2022-09-20T09:08:25;19.40;99.90
25718;DHT22;13574;52.040;5.692;2022-09-20T09:16:16;19.40;99.90
25718;DHT22;13574;52.040;5.692;2022-09-20T09:18:44;19.50;99.90
25718;DHT22;13574;52.040;5.692;2022-09-20T09:21:19;19.60;99.90
25718;DHT22;13574;52.040;5.692;2022-09-20T09:24:06;19.60;99.90
25718;DHT22;13574;52.040;5.692;2022-09-20T09:26:41;19.80;99.90
25718;DHT22;13574;52.040;5.692;2022-09-20T09:29:17;19.90;99.90
25718;DHT22;13574;52.040;5.692;2022-09-20T09:31:48;20.20;99.90
25718;DHT22;13574;52.040;5.692;2022-09-20T09:34:32;20.40;99.90
25718;DHT22;13574;52.040;5.692;2022-09-20T09:37:03;20.70;99.30
25718;DHT22;13574;52.040;5.692;2022-09-20T09:39:31;20.80;98.80
25718;DHT22;13574;52.040;5.692;2022-09-20T09:41:58;21.10;98.60
25718;DHT22;13574;52.040;5.692;2022-09-20T09:44:30;21.40;98.20
25718;DHT22;13574;52.040;5.692;2022-09-20T09:46:58;21.60;97.60
25718;DHT22;13574;52.040;5.692;2022-09-20T09:49:29;21.80;97.30
25718;DHT22;13574;52.040;5.692;2022-09-20T09:52:14;22.00;96.90
25718;DHT22;13574;52.040;5.692;2022-09-20T09:57:22;22.30;96.00
25718;DHT22;13574;52.040;5.692;2022-09-20T10:13:30;22.50;94.60
25718;DHT22;13574;52.040;5.692;2022-09-20T10:19:07;22.60;94.50
25718;DHT22;13574;52.040;5.692;2022-09-20T10:21:43;22.50;94.40
25718;DHT22;13574;52.040;5.692;2022-09-20T10:24:28;22.30;94.40
25718;DHT22;13574;52.040;5.692;2022-09-20T10:35:37;21.80;95.30
25718;DHT22;13574;52.040;5.692;2022-09-20T10:38:16;22.00;95.10
25718;DHT22;13574;52.040;5.692;2022-09-20T10:46:39;22.20;95.00
25718;DHT22;13574;52.040;5.692;2022-09-20T11:00:19;22.30;94.00
25718;DHT22;13574;52.040;5.692;2022-09-20T11:06:05;21.80;94.70
25718;DHT22;13574;52.040;5.692;2022-09-20T11:08:36;21.70;94.70
25718;DHT22;13574;52.040;5.692;2022-09-20T11:11:10;21.90;94.70
25718;DHT22;13574;52.040;5.692;2022-09-20T11:13:50;21.90;94.10
25718;DHT22;13574;52.040;5.692;2022-09-20T11:16:24;21.60;94.60
25718;DHT22;13574;52.040;5.692;2022-09-20T11:21:41;21.20;94.10
25718;DHT22;13574;52.040;5.692;2022-09-20T11:24:32;21.10;93.40
25718;DHT22;13574;52.040;5.692;2022-09-20T11:27:19;21.30;93.70
25718;DHT22;13574;52.040;5.692;2022-09-20T11:32:38;21.50;93.80
25718;DHT22;13574;52.040;5.692;2022-09-20T11:37:39;21.50;93.50
25718;DHT22;13574;52.040;5.692;2022-09-20T11:40:31;21.60;93.60
25718;DHT22;13574;52.040;5.692;2022-09-20T11:42:59;21.70;93.50
25718;DHT22;13574;52.040;5.692;2022-09-20T11:45:27;21.50;93.00
25718;DHT22;13574;52.040;5.692;2022-09-20T11:48:01;21.20;93.00
25718;DHT22;13574;52.040;5.692;2022-09-20T11:53:26;21.90;93.60
25718;DHT22;13574;52.040;5.692;2022-09-20T11:58:46;21.90;91.70
25718;DHT22;13574;52.040;5.692;2022-09-20T12:01:13;21.80;91.70
25718;DHT22;13574;52.040;5.692;2022-09-20T12:03:41;22.00;91.90
25718;DHT22;13574;52.040;5.692;2022-09-20T12:06:31;22.20;91.90
25718;DHT22;13574;52.040;5.692;2022-09-20T12:09:00;22.30;92.50
25718;DHT22;13574;52.040;5.692;2022-09-20T12:11:32;22.20;92.10
25718;DHT22;13574;52.040;5.692;2022-09-20T12:14:27;22.30;92.60
25718;DHT22;13574;52.040;5.692;2022-09-20T12:16:53;22.50;92.60
25718;DHT22;13574;52.040;5.692;2022-09-20T12:19:36;22.40;92.50
25718;DHT22;13574;52.040;5.692;2022-09-20T12:24:38;22.20;91.40
25718;DHT22;13574;52.040;5.692;2022-09-20T12:27:21;22.30;92.20
25718;DHT22;13574;52.040;5.692;2022-09-20T12:30:26;22.40;91.70
25718;DHT22;13574;52.040;5.692;2022-09-20T12:32:55;22.40;91.80
25718;DHT22;13574;52.040;5.692;2022-09-20T12:41:08;21.70;92.60
25718;DHT22;13574;52.040;5.692;2022-09-20T12:43:45;21.60;92.70
25718;DHT22;13574;52.040;5.692;2022-09-20T12:46:31;21.60;93.00
25718;DHT22;13574;52.040;5.692;2022-09-20T12:49:19;21.90;92.90
25718;DHT22;13574;52.040;5.692;2022-09-20T12:55:09;22.20;91.60
25718;DHT22;13574;52.040;5.692;2022-09-20T12:57:35;21.70;91.70
25718;DHT22;13574;52.040;5.692;2022-09-20T13:00:04;21.50;91.70
25718;DHT22;13574;52.040;5.692;2022-09-20T13:02:59;21.50;92.20
25718;DHT22;13574;52.040;5.692;2022-09-20T13:05:45;21.10;91.90
25718;DHT22;13574;52.040;5.692;2022-09-20T13:08:15;21.20;92.70
25718;DHT22;13574;52.040;5.692;2022-09-20T13:10:49;21.30;92.90
25718;DHT22;13574;52.040;5.692;2022-09-20T13:13:28;21.40;92.80
25718;DHT22;13574;52.040;5.692;2022-09-20T13:15:56;21.20;92.00
25718;DHT22;13574;52.040;5.692;2022-09-20T13:18:23;20.90;91.90
25718;DHT22;13574;52.040;5.692;2022-09-20T13:20:51;21.20;92.30
25718;DHT22;13574;52.040;5.692;2022-09-20T13:23:22;21.40;92.50
25718;DHT22;13574;52.040;5.692;2022-09-20T13:25:50;21.50;91.90
25718;DHT22;13574;52.040;5.692;2022-09-20T13:28:31;21.60;92.10
25718;DHT22;13574;52.040;5.692;2022-09-20T13:31:36;21.60;90.50
25718;DHT22;13574;52.040;5.692;2022-09-20T13:36:47;21.50;90.90
25718;DHT22;13574;52.040;5.692;2022-09-20T13:39:34;21.00;91.00
25718;DHT22;13574;52.040;5.692;2022-09-20T13:42:05;20.80;91.10
25718;DHT22;13574;52.040;5.692;2022-09-20T13:44:33;20.80;91.50
25718;DHT22;13574;52.040;5.692;2022-09-20T13:46:59;21.10;91.30
25718;DHT22;13574;52.040;5.692;2022-09-20T13:49:30;20.90;91.50
25718;DHT22;13574;52.040;5.692;2022-09-20T13:51:56;20.70;91.50
25718;DHT22;13574;52.040;5.692;2022-09-20T13:54:30;20.40;91.90
25718;DHT22;13574;52.040;5.692;2022-09-20T13:57:12;20.50;91.70
25718;DHT22;13574;52.040;5.692;2022-09-20T13:59:43;20.20;90.60
25718;DHT22;13574;52.040;5.692;2022-09-20T14:02:26;20.30;91.10
25718;DHT22;13574;52.040;5.692;2022-09-20T14:04:55;20.30;91.80
25718;DHT22;13574;52.040;5.692;2022-09-20T14:07:22;20.50;91.40
25718;DHT22;13574;52.040;5.692;2022-09-20T14:09:51;20.40;91.20
25718;DHT22;13574;52.040;5.692;2022-09-20T14:12:17;20.30;91.40
25718;DHT22;13574;52.040;5.692;2022-09-20T14:14:43;20.20;91.90
25718;DHT22;13574;52.040;5.692;2022-09-20T14:17:14;20.30;91.50
25718;DHT22;13574;52.040;5.692;2022-09-20T14:19:41;20.30;91.70
25718;DHT22;13574;52.040;5.692;2022-09-20T14:22:23;20.50;91.60
25718;DHT22;13574;52.040;5.692;2022-09-20T14:24:59;20.50;91.40
25718;DHT22;13574;52.040;5.692;2022-09-20T14:27:25;20.40;91.30
25718;DHT22;13574;52.040;5.692;2022-09-20T14:29:52;20.40;91.40
25718;DHT22;13574;52.040;5.692;2022-09-20T14:35:11;20.10;91.50
25718;DHT22;13574;52.040;5.692;2022-09-20T14:37:45;20.00;91.30
25718;DHT22;13574;52.040;5.692;2022-09-20T14:42:59;20.10;92.10
25718;DHT22;13574;52.040;5.692;2022-09-20T14:45:26;20.10;91.70
25718;DHT22;13574;52.040;5.692;2022-09-20T14:50:39;20.50;91.60
25718;DHT22;13574;52.040;5.692;2022-09-20T14:55:39;20.70;92.10
25718;DHT22;13574;52.040;5.692;2022-09-20T14:58:13;20.60;91.80
25718;DHT22;13574;52.040;5.692;2022-09-20T15:03:40;20.70;92.20
25718;DHT22;13574;52.040;5.692;2022-09-20T15:06:11;20.70;91.40
25718;DHT22;13574;52.040;5.692;2022-09-20T15:08:37;20.60;91.50
25718;DHT22;13574;52.040;5.692;2022-09-20T15:11:03;20.80;91.70
25718;DHT22;13574;52.040;5.692;2022-09-20T15:13:29;20.70;91.60
25718;DHT22;13574;52.040;5.692;2022-09-20T15:15:55;20.50;91.80
25718;DHT22;13574;52.040;5.692;2022-09-20T15:18:26;20.70;92.00
25718;DHT22;13574;52.040;5.692;2022-09-20T15:20:53;20.70;92.50
25718;DHT22;13574;52.040;5.692;2022-09-20T15:23:19;20.70;92.30
25718;DHT22;13574;52.040;5.692;2022-09-20T15:25:48;20.60;92.80
25718;DHT22;13574;52.040;5.692;2022-09-20T15:28:16;20.60;92.70
25718;DHT22;13574;52.040;5.692;2022-09-20T15:30:47;20.50;92.90
25718;DHT22;13574;52.040;5.692;2022-09-20T15:33:13;20.60;93.10
25718;DHT22;13574;52.040;5.692;2022-09-20T15:35:40;20.60;93.40
25718;DHT22;13574;52.040;5.692;2022-09-20T15:38:06;20.50;92.90
25718;DHT22;13574;52.040;5.692;2022-09-20T15:40:37;20.50;93.30
25718;DHT22;13574;52.040;5.692;2022-09-20T15:43:03;20.50;93.50
25718;DHT22;13574;52.040;5.692;2022-09-20T15:45:29;20.50;93.60
25718;DHT22;13574;52.040;5.692;2022-09-20T15:47:56;20.30;93.60
25718;DHT22;13574;52.040;5.692;2022-09-20T15:50:23;20.20;93.10
25718;DHT22;13574;52.040;5.692;2022-09-20T15:52:50;19.80;92.90
25718;DHT22;13574;52.040;5.692;2022-09-20T15:55:17;19.70;92.10
25718;DHT22;13574;52.040;5.692;2022-09-20T15:57:43;19.50;92.00
25718;DHT22;13574;52.040;5.692;2022-09-20T16:00:10;19.70;92.10
25718;DHT22;13574;52.040;5.692;2022-09-20T16:02:36;19.80;92.30
25718;DHT22;13574;52.040;5.692;2022-09-20T16:05:02;19.80;91.90
25718;DHT22;13574;52.040;5.692;2022-09-20T16:07:28;19.80;91.90
25718;DHT22;13574;52.040;5.692;2022-09-20T16:09:54;20.00;92.30
25718;DHT22;13574;52.040;5.692;2022-09-20T16:12:21;20.00;92.70
25718;DHT22;13574;52.040;5.692;2022-09-20T16:14:47;20.00;92.80
25718;DHT22;13574;52.040;5.692;2022-09-20T16:17:14;20.00;92.60
25718;DHT22;13574;52.040;5.692;2022-09-20T16:19:40;19.90;92.50
25718;DHT22;13574;52.040;5.692;2022-09-20T16:22:07;19.90;93.00
25718;DHT22;13574;52.040;5.692;2022-09-20T16:24:34;19.90;93.20
25718;DHT22;13574;52.040;5.692;2022-09-20T16:27:02;19.80;92.90
25718;DHT22;13574;52.040;5.692;2022-09-20T16:29:29;19.70;93.00
25718;DHT22;13574;52.040;5.692;2022-09-20T16:31:56;19.80;92.70
25718;DHT22;13574;52.040;5.692;2022-09-20T16:34:24;19.80;93.10
25718;DHT22;13574;52.040;5.692;2022-09-20T16:36:56;19.90;93.60
25718;DHT22;13574;52.040;5.692;2022-09-20T16:39:23;19.90;93.80
25718;DHT22;13574;52.040;5.692;2022-09-20T16:41:53;19.80;93.80
25718;DHT22;13574;52.040;5.692;2022-09-20T16:44:20;19.80;94.10
25718;DHT22;13574;52.040;5.692;2022-09-20T16:46:45;19.80;94.20
25718;DHT22;13574;52.040;5.692;2022-09-20T16:49:11;19.70;94.50
25718;DHT22;13574;52.040;5.692;2022-09-20T16:51:42;19.70;94.40
25718;DHT22;13574;52.040;5.692;2022-09-20T16:54:13;19.70;94.40
25718;DHT22;13574;52.040;5.692;2022-09-20T16:56:44;19.70;94.40
25718;DHT22;13574;52.040;5.692;2022-09-20T16:59:11;19.60;94.60
25718;DHT22;13574;52.040;5.692;2022-09-20T17:01:38;19.60;94.80
25718;DHT22;13574;52.040;5.692;2022-09-20T17:04:05;19.60;95.00
25718;DHT22;13574;52.040;5.692;2022-09-20T17:06:32;19.50;95.10
25718;DHT22;13574;52.040;5.692;2022-09-20T17:08:59;19.50;95.20
25718;DHT22;13574;52.040;5.692;2022-09-20T17:11:30;19.40;95.30
25718;DHT22;13574;52.040;5.692;2022-09-20T17:13:57;19.40;95.40
25718;DHT22;13574;52.040;5.692;2022-09-20T17:16:27;19.30;95.50
25718;DHT22;13574;52.040;5.692;2022-09-20T17:18:58;19.30;95.60
25718;DHT22;13574;52.040;5.692;2022-09-20T17:21:26;19.30;95.70
25718;DHT22;13574;52.040;5.692;2022-09-20T17:23:54;19.10;95.80
25718;DHT22;13574;52.040;5.692;2022-09-20T17:26:22;19.10;95.70
25718;DHT22;13574;52.040;5.692;2022-09-20T17:28:50;19.00;95.60
25718;DHT22;13574;52.040;5.692;2022-09-20T17:31:21;18.90;95.40
25718;DHT22;13574;52.040;5.692;2022-09-20T17:33:47;18.90;95.40
25718;DHT22;13574;52.040;5.692;2022-09-20T17:36:16;18.90;95.60
25718;DHT22;13574;52.040;5.692;2022-09-20T17:38:44;18.80;95.50
25718;DHT22;13574;52.040;5.692;2022-09-20T17:41:14;18.80;95.70
25718;DHT22;13574;52.040;5.692;2022-09-20T17:43:41;18.70;95.50
25718;DHT22;13574;52.040;5.692;2022-09-20T17:48:40;18.50;95.50
25718;DHT22;13574;52.040;5.692;2022-09-20T17:51:08;18.30;95.50
25718;DHT22;13574;52.040;5.692;2022-09-20T17:53:35;18.20;95.60
25718;DHT22;13574;52.040;5.692;2022-09-20T17:56:02;18.30;96.00
25718;DHT22;13574;52.040;5.692;2022-09-20T17:58:28;18.30;96.20
25718;DHT22;13574;52.040;5.692;2022-09-20T18:01:01;18.20;96.20
25718;DHT22;13574;52.040;5.692;2022-09-20T18:03:27;18.20;96.30
25718;DHT22;13574;52.040;5.692;2022-09-20T18:05:53;18.20;96.50
25718;DHT22;13574;52.040;5.692;2022-09-20T18:08:19;18.20;96.70
25718;DHT22;13574;52.040;5.692;2022-09-20T18:10:55;18.10;97.00
25718;DHT22;13574;52.040;5.692;2022-09-20T18:13:21;18.10;96.90
25718;DHT22;13574;52.040;5.692;2022-09-20T18:15:47;18.00;96.90
25718;DHT22;13574;52.040;5.692;2022-09-20T18:18:13;18.10;96.90
25718;DHT22;13574;52.040;5.692;2022-09-20T18:20:39;18.00;96.80
25718;DHT22;13574;52.040;5.692;2022-09-20T18:23:04;18.00;97.00
25718;DHT22;13574;52.040;5.692;2022-09-20T18:25:30;18.00;97.00
25718;DHT22;13574;52.040;5.692;2022-09-20T18:28:15;17.90;97.00
25718;DHT22;13574;52.040;5.692;2022-09-20T18:30:42;17.90;96.90
25718;DHT22;13574;52.040;5.692;2022-09-20T18:33:10;17.80;97.10
25718;DHT22;13574;52.040;5.692;2022-09-20T18:35:36;17.80;97.30
25718;DHT22;13574;52.040;5.692;2022-09-20T18:38:06;17.80;97.40
25718;DHT22;13574;52.040;5.692;2022-09-20T18:40:32;17.80;97.50
25718;DHT22;13574;52.040;5.692;2022-09-20T18:43:00;17.70;97.50
25718;DHT22;13574;52.040;5.692;2022-09-20T18:45:26;17.80;97.60
25718;DHT22;13574;52.040;5.692;2022-09-20T18:47:52;17.70;97.60
25718;DHT22;13574;52.040;5.692;2022-09-20T18:50:21;17.60;97.80
25718;DHT22;13574;52.040;5.692;2022-09-20T18:52:48;17.70;97.80
25718;DHT22;13574;52.040;5.692;2022-09-20T18:55:15;17.60;97.90
25718;DHT22;13574;52.040;5.692;2022-09-20T18:57:41;17.60;97.90
25718;DHT22;13574;52.040;5.692;2022-09-20T19:00:10;17.50;98.10
25718;DHT22;13574;52.040;5.692;2022-09-20T19:03:04;17.50;98.00
25718;DHT22;13574;52.040;5.692;2022-09-20T19:05:50;17.50;98.20
25718;DHT22;13574;52.040;5.692;2022-09-20T19:10:55;17.40;98.40
25718;DHT22;13574;52.040;5.692;2022-09-20T19:16:16;17.40;98.30
25718;DHT22;13574;52.040;5.692;2022-09-20T19:24:43;17.30;99.00
25718;DHT22;13574;52.040;5.692;2022-09-20T19:27:11;17.20;98.90
25718;DHT22;13574;52.040;5.692;2022-09-20T19:29:37;17.10;98.90
25718;DHT22;13574;52.040;5.692;2022-09-20T19:32:03;17.00;99.10
25718;DHT22;13574;52.040;5.692;2022-09-20T19:34:30;17.10;99.10
25718;DHT22;13574;52.040;5.692;2022-09-20T19:39:39;17.10;99.30
25718;DHT22;13574;52.040;5.692;2022-09-20T19:51:19;17.00;99.50
25718;DHT22;13574;52.040;5.692;2022-09-20T19:53:56;17.00;99.50
25718;DHT22;13574;52.040;5.692;2022-09-20T19:56:25;17.00;99.80
25718;DHT22;13574;52.040;5.692;2022-09-20T19:58:53;17.00;99.70
25718;DHT22;13574;52.040;5.692;2022-09-20T20:01:21;17.00;99.70
25718;DHT22;13574;52.040;5.692;2022-09-20T20:03:51;16.90;99.80
25718;DHT22;13574;52.040;5.692;2022-09-20T20:09:10;16.90;99.90
25718;DHT22;13574;52.040;5.692;2022-09-20T20:12:05;17.00;99.90
25718;DHT22;13574;52.040;5.692;2022-09-20T20:17:34;17.00;99.90
25718;DHT22;13574;52.040;5.692;2022-09-20T20:26:05;17.10;99.90
25718;DHT22;13574;52.040;5.692;2022-09-20T20:28:32;17.20;99.90
25718;DHT22;13574;52.040;5.692;2022-09-20T20:30:59;17.20;99.90
25718;DHT22;13574;52.040;5.692;2022-09-20T20:33:27;17.20;99.90
25718;DHT22;13574;52.040;5.692;2022-09-20T20:35:54;17.30;99.90
25718;DHT22;13574;52.040;5.692;2022-09-20T20:38:23;17.40;99.90
25718;DHT22;13574;52.040;5.692;2022-09-20T20:41:05;17.50;99.90
25718;DHT22;13574;52.040;5.692;2022-09-20T20:43:32;17.50;99.90
25718;DHT22;13574;52.040;5.692;2022-09-20T20:45:59;17.40;99.80
25718;DHT22;13574;52.040;5.692;2022-09-20T20:48:25;17.40;99.90
25718;DHT22;13574;52.040;5.692;2022-09-20T20:53:30;17.40;99.90
25718;DHT22;13574;52.040;5.692;2022-09-20T20:56:04;17.50;99.90
25718;DHT22;13574;52.040;5.692;2022-09-20T20:58:32;17.60;99.90
25718;DHT22;13574;52.040;5.692;2022-09-20T21:01:22;17.50;99.90